Pagrindinis puslapis
METAR-TAF:

METAR-TAF

Oro uostai :

Clovis, Naujoji Meksika, Jungtinės Amerikos Valstijos

platuma: 34-26N, ilguma: 103-05W, Aukštis: 1284 m

Dabartinis oras

Ataskaita buvo paskelbta 57 minutes, ne 09:56 UTC
Vėjas 6 kt iš Pietų/Pietvakarių
Temperatūra 8°C
Drėgmė 66%
Slėgis 1022 hPa
Matomumas: 16.1 km
Giedras dangus

METAR: KCVN 230956Z AUTO 20006KT 10SM CLR 08/02 A3018 RMK AO2 SLP192 T00780017

Laikas: 04:53 (10:53 UTC)


TAF: trūkstamas

Orai ataskaitas ir orų prognozės (METAR, TAF).

turimą stotys yra geltonos ir raudonos taškus žemėlapyje.

Perkelti pele per norėdami pamatyti stoties vardą.

Tada spustelėkite, norėdami matyti oro stebėjimo ir prognozės.

Norėdami pakeisti žemėlapį: spustelėkite ant žalios mygtukų su juodo kryžiaus žemyn,; žalią mygtuką su brūkšneliu, jei norite nutolinti; arba žalių rodyklių gretimoms žemėlapius.


METAR-TAF: